sensor_id;sensor_type;location;lat;lon;timestamp;P1;durP1;ratioP1;P2;durP2;ratioP2
19946;SDS011;10135;50.702;7.276;2022-12-07T06:02:14;23.13;;;13.37;;
19946;SDS011;10135;50.702;7.276;2022-12-07T06:04:16;23.53;;;13.30;;
19946;SDS011;10135;50.702;7.276;2022-12-07T06:06:17;19.90;;;11.70;;
19946;SDS011;10135;50.702;7.276;2022-12-07T06:08:18;19.67;;;11.13;;
19946;SDS011;10135;50.702;7.276;2022-12-07T06:10:19;18.77;;;10.27;;
19946;SDS011;10135;50.702;7.276;2022-12-07T06:12:19;15.90;;;10.33;;
19946;SDS011;10135;50.702;7.276;2022-12-07T06:14:35;18.10;;;9.20;;
19946;SDS011;10135;50.702;7.276;2022-12-07T06:16:36;15.30;;;9.90;;
19946;SDS011;10135;50.702;7.276;2022-12-07T06:18:36;18.17;;;9.53;;
19946;SDS011;10135;50.702;7.276;2022-12-07T06:20:37;14.87;;;9.43;;
19946;SDS011;10135;50.702;7.276;2022-12-07T06:22:38;19.70;;;10.53;;
19946;SDS011;10135;50.702;7.276;2022-12-07T06:24:38;19.67;;;10.70;;
19946;SDS011;10135;50.702;7.276;2022-12-07T06:26:40;17.60;;;10.87;;
19946;SDS011;10135;50.702;7.276;2022-12-07T06:28:41;24.37;;;12.53;;
19946;SDS011;10135;50.702;7.276;2022-12-07T06:30:42;24.83;;;12.70;;
19946;SDS011;10135;50.702;7.276;2022-12-07T06:32:42;23.33;;;13.30;;
19946;SDS011;10135;50.702;7.276;2022-12-07T06:34:43;24.50;;;12.73;;
19946;SDS011;10135;50.702;7.276;2022-12-07T06:36:43;24.53;;;12.80;;
19946;SDS011;10135;50.702;7.276;2022-12-07T06:38:45;25.77;;;12.60;;
19946;SDS011;10135;50.702;7.276;2022-12-07T06:40:46;24.63;;;14.07;;
19946;SDS011;10135;50.702;7.276;2022-12-07T06:42:46;23.07;;;12.30;;
19946;SDS011;10135;50.702;7.276;2022-12-07T06:44:47;23.10;;;11.47;;
19946;SDS011;10135;50.702;7.276;2022-12-07T06:46:48;22.27;;;11.73;;
19946;SDS011;10135;50.702;7.276;2022-12-07T06:48:50;17.77;;;11.70;;
19946;SDS011;10135;50.702;7.276;2022-12-07T06:50:51;20.10;;;11.70;;
19946;SDS011;10135;50.702;7.276;2022-12-07T06:55:58;21.67;;;12.03;;
19946;SDS011;10135;50.702;7.276;2022-12-07T06:57:58;18.97;;;11.90;;
19946;SDS011;10135;50.702;7.276;2022-12-07T06:59:59;20.93;;;11.43;;
19946;SDS011;10135;50.702;7.276;2022-12-07T07:02:00;21.87;;;12.60;;
19946;SDS011;10135;50.702;7.276;2022-12-07T07:04:00;25.70;;;13.17;;
19946;SDS011;10135;50.702;7.276;2022-12-07T07:06:01;24.43;;;13.23;;
19946;SDS011;10135;50.702;7.276;2022-12-07T07:08:02;24.80;;;13.23;;
19946;SDS011;10135;50.702;7.276;2022-12-07T07:10:03;24.70;;;12.90;;
19946;SDS011;10135;50.702;7.276;2022-12-07T07:12:05;23.57;;;13.47;;
19946;SDS011;10135;50.702;7.276;2022-12-07T07:14:06;26.93;;;12.90;;
19946;SDS011;10135;50.702;7.276;2022-12-07T07:16:06;26.50;;;13.70;;
19946;SDS011;10135;50.702;7.276;2022-12-07T07:18:07;22.87;;;12.37;;
19946;SDS011;10135;50.702;7.276;2022-12-07T07:20:08;25.97;;;13.17;;
19946;SDS011;10135;50.702;7.276;2022-12-07T07:22:10;24.33;;;12.97;;
19946;SDS011;10135;50.702;7.276;2022-12-07T07:24:10;22.37;;;13.10;;
19946;SDS011;10135;50.702;7.276;2022-12-07T07:26:11;26.23;;;13.63;;
19946;SDS011;10135;50.702;7.276;2022-12-07T07:28:12;23.20;;;13.40;;
19946;SDS011;10135;50.702;7.276;2022-12-07T07:30:13;22.27;;;12.67;;
19946;SDS011;10135;50.702;7.276;2022-12-07T07:32:13;23.57;;;13.20;;
19946;SDS011;10135;50.702;7.276;2022-12-07T07:34:14;23.43;;;13.23;;
19946;SDS011;10135;50.702;7.276;2022-12-07T07:36:15;26.30;;;13.10;;
19946;SDS011;10135;50.702;7.276;2022-12-07T07:38:16;26.37;;;14.47;;
19946;SDS011;10135;50.702;7.276;2022-12-07T07:40:16;23.93;;;13.53;;
19946;SDS011;10135;50.702;7.276;2022-12-07T07:42:17;24.67;;;13.53;;
19946;SDS011;10135;50.702;7.276;2022-12-07T07:44:17;26.03;;;13.63;;
19946;SDS011;10135;50.702;7.276;2022-12-07T07:46:18;27.23;;;13.23;;
19946;SDS011;10135;50.702;7.276;2022-12-07T07:48:19;23.53;;;12.77;;
19946;SDS011;10135;50.702;7.276;2022-12-07T07:50:19;24.77;;;12.93;;
19946;SDS011;10135;50.702;7.276;2022-12-07T07:52:21;19.23;;;11.73;;
19946;SDS011;10135;50.702;7.276;2022-12-07T07:54:21;20.60;;;12.07;;
19946;SDS011;10135;50.702;7.276;2022-12-07T07:56:22;20.90;;;12.37;;
19946;SDS011;10135;50.702;7.276;2022-12-07T07:58:23;20.90;;;11.93;;
19946;SDS011;10135;50.702;7.276;2022-12-07T08:00:24;18.30;;;10.73;;
19946;SDS011;10135;50.702;7.276;2022-12-07T08:02:24;23.20;;;11.17;;
19946;SDS011;10135;50.702;7.276;2022-12-07T08:04:25;17.37;;;10.67;;
19946;SDS011;10135;50.702;7.276;2022-12-07T08:06:26;19.10;;;10.77;;
19946;SDS011;10135;50.702;7.276;2022-12-07T08:08:26;19.77;;;10.33;;
19946;SDS011;10135;50.702;7.276;2022-12-07T08:10:27;19.30;;;10.57;;
19946;SDS011;10135;50.702;7.276;2022-12-07T08:12:28;18.97;;;11.10;;
19946;SDS011;10135;50.702;7.276;2022-12-07T08:14:28;19.27;;;10.37;;
19946;SDS011;10135;50.702;7.276;2022-12-07T08:20:00;19.47;;;10.97;;
19946;SDS011;10135;50.702;7.276;2022-12-07T08:23:06;19.33;;;11.23;;
19946;SDS011;10135;50.702;7.276;2022-12-07T08:39:16;20.83;;;10.63;;
19946;SDS011;10135;50.702;7.276;2022-12-07T08:41:17;23.57;;;10.63;;
19946;SDS011;10135;50.702;7.276;2022-12-07T08:43:20;21.20;;;11.43;;
19946;SDS011;10135;50.702;7.276;2022-12-07T08:45:21;19.03;;;11.17;;
19946;SDS011;10135;50.702;7.276;2022-12-07T08:47:23;16.73;;;10.67;;
19946;SDS011;10135;50.702;7.276;2022-12-07T08:49:30;18.70;;;10.93;;
19946;SDS011;10135;50.702;7.276;2022-12-07T08:52:04;18.43;;;10.43;;
19946;SDS011;10135;50.702;7.276;2022-12-07T08:54:27;18.87;;;10.27;;
19946;SDS011;10135;50.702;7.276;2022-12-07T09:06:36;21.33;;;10.90;;
19946;SDS011;10135;50.702;7.276;2022-12-07T09:08:39;20.47;;;10.90;;
19946;SDS011;10135;50.702;7.276;2022-12-07T09:10:45;17.93;;;10.40;;
19946;SDS011;10135;50.702;7.276;2022-12-07T09:12:47;18.47;;;10.03;;
19946;SDS011;10135;50.702;7.276;2022-12-07T09:14:48;19.77;;;11.30;;
19946;SDS011;10135;50.702;7.276;2022-12-07T09:16:48;18.07;;;10.83;;
19946;SDS011;10135;50.702;7.276;2022-12-07T09:18:52;20.67;;;11.10;;
19946;SDS011;10135;50.702;7.276;2022-12-07T09:20:53;20.43;;;11.17;;
19946;SDS011;10135;50.702;7.276;2022-12-07T09:22:53;19.40;;;10.80;;
19946;SDS011;10135;50.702;7.276;2022-12-07T09:24:55;20.13;;;11.20;;
19946;SDS011;10135;50.702;7.276;2022-12-07T09:26:59;17.07;;;10.17;;
19946;SDS011;10135;50.702;7.276;2022-12-07T09:29:01;16.50;;;10.23;;
19946;SDS011;10135;50.702;7.276;2022-12-07T09:31:03;22.43;;;10.57;;
19946;SDS011;10135;50.702;7.276;2022-12-07T09:35:44;18.73;;;10.30;;
19946;SDS011;10135;50.702;7.276;2022-12-07T09:37:46;20.87;;;10.40;;
19946;SDS011;10135;50.702;7.276;2022-12-07T09:39:47;18.50;;;10.20;;
19946;SDS011;10135;50.702;7.276;2022-12-07T09:41:48;17.83;;;10.53;;
19946;SDS011;10135;50.702;7.276;2022-12-07T09:43:49;19.20;;;9.90;;
19946;SDS011;10135;50.702;7.276;2022-12-07T09:45:51;16.27;;;9.40;;
19946;SDS011;10135;50.702;7.276;2022-12-07T09:47:55;18.30;;;9.87;;
19946;SDS011;10135;50.702;7.276;2022-12-07T09:52:48;16.50;;;9.50;;
19946;SDS011;10135;50.702;7.276;2022-12-07T09:54:53;17.60;;;9.20;;
19946;SDS011;10135;50.702;7.276;2022-12-07T09:56:54;20.10;;;9.23;;
19946;SDS011;10135;50.702;7.276;2022-12-07T09:58:58;20.00;;;9.57;;
19946;SDS011;10135;50.702;7.276;2022-12-07T10:03:07;18.17;;;9.30;;
19946;SDS011;10135;50.702;7.276;2022-12-07T10:07:57;20.90;;;9.30;;
19946;SDS011;10135;50.702;7.276;2022-12-07T10:13:11;15.57;;;9.40;;
19946;SDS011;10135;50.702;7.276;2022-12-07T10:15:14;15.40;;;9.10;;
19946;SDS011;10135;50.702;7.276;2022-12-07T10:17:26;18.73;;;9.73;;
19946;SDS011;10135;50.702;7.276;2022-12-07T10:19:33;21.50;;;9.60;;
19946;SDS011;10135;50.702;7.276;2022-12-07T10:21:34;15.73;;;9.17;;
19946;SDS011;10135;50.702;7.276;2022-12-07T10:23:35;15.20;;;8.83;;
19946;SDS011;10135;50.702;7.276;2022-12-07T10:25:41;19.50;;;9.50;;
19946;SDS011;10135;50.702;7.276;2022-12-07T10:27:42;20.10;;;8.80;;
19946;SDS011;10135;50.702;7.276;2022-12-07T10:29:46;16.70;;;8.50;;
19946;SDS011;10135;50.702;7.276;2022-12-07T10:32:03;19.40;;;9.13;;
19946;SDS011;10135;50.702;7.276;2022-12-07T10:36:38;14.67;;;8.13;;
19946;SDS011;10135;50.702;7.276;2022-12-07T10:38:39;16.73;;;8.37;;
19946;SDS011;10135;50.702;7.276;2022-12-07T11:01:02;14.53;;;8.13;;
19946;SDS011;10135;50.702;7.276;2022-12-07T11:06:16;9.40;;;6.40;;
19946;SDS011;10135;50.702;7.276;2022-12-07T11:09:04;13.70;;;7.00;;
19946;SDS011;10135;50.702;7.276;2022-12-07T11:16:23;9.73;;;6.27;;
19946;SDS011;10135;50.702;7.276;2022-12-07T11:18:52;13.40;;;6.80;;
19946;SDS011;10135;50.702;7.276;2022-12-07T11:21:23;15.47;;;6.93;;
19946;SDS011;10135;50.702;7.276;2022-12-07T11:23:59;10.90;;;6.60;;
19946;SDS011;10135;50.702;7.276;2022-12-07T11:31:28;10.50;;;6.50;;
19946;SDS011;10135;50.702;7.276;2022-12-07T11:34:12;10.33;;;6.30;;
19946;SDS011;10135;50.702;7.276;2022-12-07T11:36:35;10.93;;;6.00;;
19946;SDS011;10135;50.702;7.276;2022-12-07T11:38:52;11.07;;;6.27;;
19946;SDS011;10135;50.702;7.276;2022-12-07T12:17:16;5.23;;;3.93;;
19946;SDS011;10135;50.702;7.276;2022-12-07T12:20:16;5.47;;;3.67;;
19946;SDS011;10135;50.702;7.276;2022-12-07T12:22:30;5.33;;;3.87;;
19946;SDS011;10135;50.702;7.276;2022-12-07T12:24:38;8.73;;;4.77;;
19946;SDS011;10135;50.702;7.276;2022-12-07T12:26:48;10.33;;;4.47;;
19946;SDS011;10135;50.702;7.276;2022-12-07T12:29:05;7.23;;;3.60;;
19946;SDS011;10135;50.702;7.276;2022-12-07T12:33:28;7.20;;;3.53;;
19946;SDS011;10135;50.702;7.276;2022-12-07T12:35:33;6.60;;;3.50;;
19946;SDS011;10135;50.702;7.276;2022-12-07T12:39:37;5.80;;;3.97;;
19946;SDS011;10135;50.702;7.276;2022-12-07T12:43:39;9.17;;;3.80;;
19946;SDS011;10135;50.702;7.276;2022-12-07T12:46:02;6.87;;;3.97;;
19946;SDS011;10135;50.702;7.276;2022-12-07T12:48:36;7.23;;;3.70;;
19946;SDS011;10135;50.702;7.276;2022-12-07T12:50:37;7.87;;;4.03;;
19946;SDS011;10135;50.702;7.276;2022-12-07T12:54:39;7.63;;;4.13;;
19946;SDS011;10135;50.702;7.276;2022-12-07T12:59:29;6.50;;;3.43;;
19946;SDS011;10135;50.702;7.276;2022-12-07T13:01:39;7.17;;;3.83;;
19946;SDS011;10135;50.702;7.276;2022-12-07T13:03:55;5.90;;;3.70;;
19946;SDS011;10135;50.702;7.276;2022-12-07T13:06:17;6.03;;;3.50;;
19946;SDS011;10135;50.702;7.276;2022-12-07T13:08:24;6.00;;;3.73;;
19946;SDS011;10135;50.702;7.276;2022-12-07T13:12:29;18.20;;;4.63;;
19946;SDS011;10135;50.702;7.276;2022-12-07T13:16:40;10.47;;;4.57;;
19946;SDS011;10135;50.702;7.276;2022-12-07T13:18:41;10.83;;;4.60;;
19946;SDS011;10135;50.702;7.276;2022-12-07T13:21:39;9.47;;;5.07;;
19946;SDS011;10135;50.702;7.276;2022-12-07T13:25:48;8.23;;;5.53;;
19946;SDS011;10135;50.702;7.276;2022-12-07T13:28:02;10.03;;;4.93;;
19946;SDS011;10135;50.702;7.276;2022-12-07T13:30:16;12.77;;;5.83;;
19946;SDS011;10135;50.702;7.276;2022-12-07T13:32:23;11.10;;;5.83;;
19946;SDS011;10135;50.702;7.276;2022-12-07T13:36:43;10.77;;;5.03;;
19946;SDS011;10135;50.702;7.276;2022-12-07T13:39:27;7.73;;;4.70;;
19946;SDS011;10135;50.702;7.276;2022-12-07T13:41:19;11.23;;;4.73;;
19946;SDS011;10135;50.702;7.276;2022-12-07T13:43:23;7.87;;;4.83;;
19946;SDS011;10135;50.702;7.276;2022-12-07T13:45:25;7.83;;;4.97;;
19946;SDS011;10135;50.702;7.276;2022-12-07T13:47:48;12.27;;;4.80;;
19946;SDS011;10135;50.702;7.276;2022-12-07T13:49:55;10.10;;;4.87;;
19946;SDS011;10135;50.702;7.276;2022-12-07T13:54:20;8.80;;;4.93;;
19946;SDS011;10135;50.702;7.276;2022-12-07T13:56:22;8.37;;;5.20;;
19946;SDS011;10135;50.702;7.276;2022-12-07T13:58:34;8.03;;;4.90;;
19946;SDS011;10135;50.702;7.276;2022-12-07T14:00:35;7.23;;;4.63;;
19946;SDS011;10135;50.702;7.276;2022-12-07T14:02:36;6.77;;;4.70;;
19946;SDS011;10135;50.702;7.276;2022-12-07T14:07:26;6.20;;;4.10;;
19946;SDS011;10135;50.702;7.276;2022-12-07T14:09:28;5.77;;;4.13;;
19946;SDS011;10135;50.702;7.276;2022-12-07T14:11:30;7.57;;;4.40;;
19946;SDS011;10135;50.702;7.276;2022-12-07T14:15:45;10.53;;;5.10;;
19946;SDS011;10135;50.702;7.276;2022-12-07T14:17:51;7.87;;;4.97;;
19946;SDS011;10135;50.702;7.276;2022-12-07T14:20:01;10.20;;;5.77;;
19946;SDS011;10135;50.702;7.276;2022-12-07T14:22:08;9.93;;;5.43;;
19946;SDS011;10135;50.702;7.276;2022-12-07T14:24:21;9.27;;;5.73;;
19946;SDS011;10135;50.702;7.276;2022-12-07T14:26:22;9.47;;;6.07;;
19946;SDS011;10135;50.702;7.276;2022-12-07T14:28:30;14.87;;;6.30;;
19946;SDS011;10135;50.702;7.276;2022-12-07T14:30:37;10.90;;;5.80;;
19946;SDS011;10135;50.702;7.276;2022-12-07T14:32:37;9.63;;;5.70;;
19946;SDS011;10135;50.702;7.276;2022-12-07T14:34:38;11.73;;;5.57;;
19946;SDS011;10135;50.702;7.276;2022-12-07T14:36:39;13.23;;;5.47;;
19946;SDS011;10135;50.702;7.276;2022-12-07T14:38:39;10.97;;;5.80;;
19946;SDS011;10135;50.702;7.276;2022-12-07T14:40:40;7.27;;;5.10;;
19946;SDS011;10135;50.702;7.276;2022-12-07T14:42:51;10.47;;;4.73;;
19946;SDS011;10135;50.702;7.276;2022-12-07T14:45:10;7.97;;;4.17;;
19946;SDS011;10135;50.702;7.276;2022-12-07T14:47:17;9.83;;;4.90;;
19946;SDS011;10135;50.702;7.276;2022-12-07T14:49:17;8.80;;;4.50;;
19946;SDS011;10135;50.702;7.276;2022-12-07T14:51:18;7.37;;;4.10;;
19946;SDS011;10135;50.702;7.276;2022-12-07T14:53:20;7.20;;;4.43;;
19946;SDS011;10135;50.702;7.276;2022-12-07T14:55:29;5.43;;;3.73;;
19946;SDS011;10135;50.702;7.276;2022-12-07T14:57:31;7.07;;;3.50;;
19946;SDS011;10135;50.702;7.276;2022-12-07T14:59:31;5.77;;;3.50;;
19946;SDS011;10135;50.702;7.276;2022-12-07T15:01:33;5.53;;;3.63;;
19946;SDS011;10135;50.702;7.276;2022-12-07T15:03:34;4.40;;;3.17;;
19946;SDS011;10135;50.702;7.276;2022-12-07T15:05:37;6.57;;;3.40;;
19946;SDS011;10135;50.702;7.276;2022-12-07T15:07:38;4.47;;;3.10;;
19946;SDS011;10135;50.702;7.276;2022-12-07T15:09:39;5.67;;;3.40;;
19946;SDS011;10135;50.702;7.276;2022-12-07T15:11:39;3.50;;;3.20;;
19946;SDS011;10135;50.702;7.276;2022-12-07T15:13:40;6.80;;;3.13;;
19946;SDS011;10135;50.702;7.276;2022-12-07T15:15:59;9.37;;;3.20;;
19946;SDS011;10135;50.702;7.276;2022-12-07T15:18:00;5.87;;;3.50;;
19946;SDS011;10135;50.702;7.276;2022-12-07T15:20:00;4.90;;;3.20;;
19946;SDS011;10135;50.702;7.276;2022-12-07T15:22:03;4.57;;;3.27;;
19946;SDS011;10135;50.702;7.276;2022-12-07T15:24:04;7.10;;;3.80;;
19946;SDS011;10135;50.702;7.276;2022-12-07T15:26:05;5.47;;;3.40;;
19946;SDS011;10135;50.702;7.276;2022-12-07T15:28:07;6.17;;;3.63;;
19946;SDS011;10135;50.702;7.276;2022-12-07T15:30:08;5.60;;;3.60;;
19946;SDS011;10135;50.702;7.276;2022-12-07T15:32:09;4.57;;;3.50;;
19946;SDS011;10135;50.702;7.276;2022-12-07T15:34:10;5.40;;;4.10;;
19946;SDS011;10135;50.702;7.276;2022-12-07T15:36:15;6.20;;;4.30;;
19946;SDS011;10135;50.702;7.276;2022-12-07T15:38:21;7.87;;;5.37;;
19946;SDS011;10135;50.702;7.276;2022-12-07T15:40:22;7.77;;;5.13;;
19946;SDS011;10135;50.702;7.276;2022-12-07T15:42:23;8.43;;;5.33;;
19946;SDS011;10135;50.702;7.276;2022-12-07T15:44:23;10.87;;;6.37;;
19946;SDS011;10135;50.702;7.276;2022-12-07T15:46:42;22.03;;;12.43;;
19946;SDS011;10135;50.702;7.276;2022-12-07T15:48:45;31.47;;;15.50;;
19946;SDS011;10135;50.702;7.276;2022-12-07T15:50:45;19.70;;;10.53;;
19946;SDS011;10135;50.702;7.276;2022-12-07T15:52:46;18.37;;;7.50;;
19946;SDS011;10135;50.702;7.276;2022-12-07T15:54:47;15.23;;;7.27;;
19946;SDS011;10135;50.702;7.276;2022-12-07T15:56:48;11.40;;;6.93;;
19946;SDS011;10135;50.702;7.276;2022-12-07T15:58:49;9.73;;;6.00;;
19946;SDS011;10135;50.702;7.276;2022-12-07T16:00:49;9.77;;;6.47;;
19946;SDS011;10135;50.702;7.276;2022-12-07T16:02:50;11.10;;;5.70;;
19946;SDS011;10135;50.702;7.276;2022-12-07T16:04:51;8.47;;;5.50;;
19946;SDS011;10135;50.702;7.276;2022-12-07T16:06:53;10.07;;;5.50;;
19946;SDS011;10135;50.702;7.276;2022-12-07T16:08:53;7.97;;;5.90;;
19946;SDS011;10135;50.702;7.276;2022-12-07T16:10:54;8.27;;;5.50;;
19946;SDS011;10135;50.702;7.276;2022-12-07T16:12:55;9.50;;;5.53;;
19946;SDS011;10135;50.702;7.276;2022-12-07T16:14:55;11.47;;;5.03;;
19946;SDS011;10135;50.702;7.276;2022-12-07T16:16:56;12.50;;;5.20;;
19946;SDS011;10135;50.702;7.276;2022-12-07T16:18:57;10.50;;;5.90;;
19946;SDS011;10135;50.702;7.276;2022-12-07T16:20:58;9.47;;;5.30;;
19946;SDS011;10135;50.702;7.276;2022-12-07T16:22:59;11.73;;;5.43;;
19946;SDS011;10135;50.702;7.276;2022-12-07T16:24:59;7.00;;;5.03;;
19946;SDS011;10135;50.702;7.276;2022-12-07T16:27:00;11.80;;;5.33;;
19946;SDS011;10135;50.702;7.276;2022-12-07T16:29:01;7.00;;;4.90;;
19946;SDS011;10135;50.702;7.276;2022-12-07T16:31:09;8.17;;;5.30;;
19946;SDS011;10135;50.702;7.276;2022-12-07T16:33:13;6.80;;;4.97;;
19946;SDS011;10135;50.702;7.276;2022-12-07T16:35:13;11.50;;;5.43;;
19946;SDS011;10135;50.702;7.276;2022-12-07T16:37:14;6.77;;;5.07;;
19946;SDS011;10135;50.702;7.276;2022-12-07T16:39:15;8.73;;;5.30;;
19946;SDS011;10135;50.702;7.276;2022-12-07T16:41:16;8.97;;;5.80;;
19946;SDS011;10135;50.702;7.276;2022-12-07T16:43:16;8.13;;;5.30;;
19946;SDS011;10135;50.702;7.276;2022-12-07T16:45:17;8.83;;;5.40;;
19946;SDS011;10135;50.702;7.276;2022-12-07T16:47:18;9.33;;;5.77;;
19946;SDS011;10135;50.702;7.276;2022-12-07T16:49:18;7.73;;;5.20;;
19946;SDS011;10135;50.702;7.276;2022-12-07T16:51:19;10.00;;;5.77;;
19946;SDS011;10135;50.702;7.276;2022-12-07T16:53:20;8.13;;;5.37;;
19946;SDS011;10135;50.702;7.276;2022-12-07T16:55:23;9.13;;;5.97;;
19946;SDS011;10135;50.702;7.276;2022-12-07T16:57:23;8.20;;;5.27;;
19946;SDS011;10135;50.702;7.276;2022-12-07T16:59:24;6.80;;;5.50;;
19946;SDS011;10135;50.702;7.276;2022-12-07T17:01:25;8.37;;;5.47;;
19946;SDS011;10135;50.702;7.276;2022-12-07T17:03:28;8.20;;;5.40;;
19946;SDS011;10135;50.702;7.276;2022-12-07T17:05:28;9.60;;;5.67;;
19946;SDS011;10135;50.702;7.276;2022-12-07T17:07:29;7.67;;;5.47;;
19946;SDS011;10135;50.702;7.276;2022-12-07T17:09:30;11.07;;;6.43;;
19946;SDS011;10135;50.702;7.276;2022-12-07T17:11:30;10.97;;;6.27;;
19946;SDS011;10135;50.702;7.276;2022-12-07T17:13:31;9.73;;;6.13;;
19946;SDS011;10135;50.702;7.276;2022-12-07T17:15:57;8.40;;;6.03;;
19946;SDS011;10135;50.702;7.276;2022-12-07T17:18:00;7.60;;;5.63;;
19946;SDS011;10135;50.702;7.276;2022-12-07T17:20:01;10.43;;;6.53;;
19946;SDS011;10135;50.702;7.276;2022-12-07T17:22:03;9.20;;;5.93;;
19946;SDS011;10135;50.702;7.276;2022-12-07T17:24:05;8.43;;;6.13;;
19946;SDS011;10135;50.702;7.276;2022-12-07T17:26:09;4.90;;;4.40;;
19946;SDS011;10135;50.702;7.276;2022-12-07T17:28:14;5.03;;;4.53;;
19946;SDS011;10135;50.702;7.276;2022-12-07T17:30:14;7.67;;;4.70;;
19946;SDS011;10135;50.702;7.276;2022-12-07T17:32:16;6.93;;;4.07;;
19946;SDS011;10135;50.702;7.276;2022-12-07T17:34:16;5.47;;;4.23;;
19946;SDS011;10135;50.702;7.276;2022-12-07T17:36:19;7.40;;;4.90;;
19946;SDS011;10135;50.702;7.276;2022-12-07T17:38:23;8.13;;;5.40;;
19946;SDS011;10135;50.702;7.276;2022-12-07T17:40:24;6.13;;;4.77;;
19946;SDS011;10135;50.702;7.276;2022-12-07T17:42:25;8.07;;;5.13;;
19946;SDS011;10135;50.702;7.276;2022-12-07T17:44:35;8.37;;;5.73;;
19946;SDS011;10135;50.702;7.276;2022-12-07T17:46:36;9.00;;;5.63;;
19946;SDS011;10135;50.702;7.276;2022-12-07T17:48:39;10.43;;;6.07;;
19946;SDS011;10135;50.702;7.276;2022-12-07T17:50:39;10.83;;;6.63;;
19946;SDS011;10135;50.702;7.276;2022-12-07T17:53:18;10.83;;;6.50;;
19946;SDS011;10135;50.702;7.276;2022-12-07T17:55:19;10.00;;;6.83;;
19946;SDS011;10135;50.702;7.276;2022-12-07T17:57:19;12.50;;;7.23;;
19946;SDS011;10135;50.702;7.276;2022-12-07T17:59:20;9.60;;;7.33;;
19946;SDS011;10135;50.702;7.276;2022-12-07T18:01:21;8.40;;;6.40;;
19946;SDS011;10135;50.702;7.276;2022-12-07T18:03:22;12.97;;;7.87;;
19946;SDS011;10135;50.702;7.276;2022-12-07T18:05:22;10.20;;;7.23;;
19946;SDS011;10135;50.702;7.276;2022-12-07T18:07:23;9.20;;;7.20;;
19946;SDS011;10135;50.702;7.276;2022-12-07T18:09:23;10.17;;;6.97;;
19946;SDS011;10135;50.702;7.276;2022-12-07T18:11:24;12.83;;;7.83;;
19946;SDS011;10135;50.702;7.276;2022-12-07T18:13:26;10.07;;;7.73;;
19946;SDS011;10135;50.702;7.276;2022-12-07T18:15:35;14.03;;;7.97;;
19946;SDS011;10135;50.702;7.276;2022-12-07T18:17:36;11.27;;;7.27;;
19946;SDS011;10135;50.702;7.276;2022-12-07T18:19:37;12.70;;;7.43;;
19946;SDS011;10135;50.702;7.276;2022-12-07T18:21:37;10.53;;;7.40;;
19946;SDS011;10135;50.702;7.276;2022-12-07T18:23:39;8.73;;;7.13;;
19946;SDS011;10135;50.702;7.276;2022-12-07T18:25:45;9.77;;;7.57;;
19946;SDS011;10135;50.702;7.276;2022-12-07T18:27:50;11.57;;;7.37;;
19946;SDS011;10135;50.702;7.276;2022-12-07T18:29:50;10.50;;;7.40;;
19946;SDS011;10135;50.702;7.276;2022-12-07T18:31:53;13.63;;;7.97;;
19946;SDS011;10135;50.702;7.276;2022-12-07T18:33:53;9.60;;;7.13;;
19946;SDS011;10135;50.702;7.276;2022-12-07T18:35:55;13.80;;;7.97;;
19946;SDS011;10135;50.702;7.276;2022-12-07T18:37:59;13.73;;;8.10;;
19946;SDS011;10135;50.702;7.276;2022-12-07T18:40:00;12.93;;;7.97;;
19946;SDS011;10135;50.702;7.276;2022-12-07T18:42:00;11.17;;;8.23;;
19946;SDS011;10135;50.702;7.276;2022-12-07T18:44:03;12.13;;;7.73;;
19946;SDS011;10135;50.702;7.276;2022-12-07T18:46:38;11.93;;;7.87;;
19946;SDS011;10135;50.702;7.276;2022-12-07T18:48:32;13.00;;;7.80;;
19946;SDS011;10135;50.702;7.276;2022-12-07T18:50:34;14.20;;;8.33;;
19946;SDS011;10135;50.702;7.276;2022-12-07T18:52:36;12.80;;;8.33;;
19946;SDS011;10135;50.702;7.276;2022-12-07T18:54:36;12.13;;;7.53;;
19946;SDS011;10135;50.702;7.276;2022-12-07T18:56:37;12.97;;;7.80;;
19946;SDS011;10135;50.702;7.276;2022-12-07T18:58:38;11.90;;;7.93;;
19946;SDS011;10135;50.702;7.276;2022-12-07T19:00:59;10.17;;;7.50;;
19946;SDS011;10135;50.702;7.276;2022-12-07T19:03:00;10.80;;;6.97;;
19946;SDS011;10135;50.702;7.276;2022-12-07T19:05:01;11.00;;;7.50;;
19946;SDS011;10135;50.702;7.276;2022-12-07T19:07:01;10.90;;;7.47;;
19946;SDS011;10135;50.702;7.276;2022-12-07T19:09:03;10.47;;;7.60;;
19946;SDS011;10135;50.702;7.276;2022-12-07T19:11:03;10.73;;;7.47;;
19946;SDS011;10135;50.702;7.276;2022-12-07T19:13:24;11.70;;;7.67;;
19946;SDS011;10135;50.702;7.276;2022-12-07T19:15:25;11.60;;;8.13;;
19946;SDS011;10135;50.702;7.276;2022-12-07T19:17:26;9.70;;;7.40;;
19946;SDS011;10135;50.702;7.276;2022-12-07T19:19:33;10.60;;;7.80;;
19946;SDS011;10135;50.702;7.276;2022-12-07T19:21:40;11.33;;;7.30;;
19946;SDS011;10135;50.702;7.276;2022-12-07T19:23:41;10.27;;;7.87;;
19946;SDS011;10135;50.702;7.276;2022-12-07T19:25:41;12.00;;;7.83;;
19946;SDS011;10135;50.702;7.276;2022-12-07T19:27:42;13.10;;;7.93;;
19946;SDS011;10135;50.702;7.276;2022-12-07T19:29:43;13.07;;;7.20;;
19946;SDS011;10135;50.702;7.276;2022-12-07T19:31:44;12.53;;;7.70;;
19946;SDS011;10135;50.702;7.276;2022-12-07T19:33:45;10.03;;;7.60;;
19946;SDS011;10135;50.702;7.276;2022-12-07T19:35:46;11.20;;;7.33;;
19946;SDS011;10135;50.702;7.276;2022-12-07T19:37:46;12.47;;;7.93;;
19946;SDS011;10135;50.702;7.276;2022-12-07T19:39:47;9.53;;;6.90;;
19946;SDS011;10135;50.702;7.276;2022-12-07T19:41:50;11.10;;;6.83;;
19946;SDS011;10135;50.702;7.276;2022-12-07T19:43:51;12.00;;;6.67;;
19946;SDS011;10135;50.702;7.276;2022-12-07T19:45:51;12.47;;;7.67;;
19946;SDS011;10135;50.702;7.276;2022-12-07T19:47:52;10.77;;;6.80;;
19946;SDS011;10135;50.702;7.276;2022-12-07T19:49:53;11.13;;;6.93;;
19946;SDS011;10135;50.702;7.276;2022-12-07T19:51:54;10.30;;;6.90;;
19946;SDS011;10135;50.702;7.276;2022-12-07T19:53:58;10.90;;;7.13;;
19946;SDS011;10135;50.702;7.276;2022-12-07T19:56:00;12.90;;;7.23;;
19946;SDS011;10135;50.702;7.276;2022-12-07T19:58:01;12.10;;;7.43;;
19946;SDS011;10135;50.702;7.276;2022-12-07T20:00:02;11.97;;;7.83;;
19946;SDS011;10135;50.702;7.276;2022-12-07T20:02:04;25.10;;;13.43;;
19946;SDS011;10135;50.702;7.276;2022-12-07T20:04:05;14.30;;;8.80;;
19946;SDS011;10135;50.702;7.276;2022-12-07T20:06:11;12.77;;;8.17;;
19946;SDS011;10135;50.702;7.276;2022-12-07T20:08:18;12.23;;;8.93;;
19946;SDS011;10135;50.702;7.276;2022-12-07T20:10:19;13.60;;;8.40;;
19946;SDS011;10135;50.702;7.276;2022-12-07T20:12:19;11.83;;;8.00;;
19946;SDS011;10135;50.702;7.276;2022-12-07T20:14:38;12.37;;;8.40;;
19946;SDS011;10135;50.702;7.276;2022-12-07T20:16:42;9.87;;;7.73;;
19946;SDS011;10135;50.702;7.276;2022-12-07T20:18:45;11.53;;;7.87;;
19946;SDS011;10135;50.702;7.276;2022-12-07T20:20:53;10.23;;;8.20;;
19946;SDS011;10135;50.702;7.276;2022-12-07T20:22:58;10.90;;;7.70;;
19946;SDS011;10135;50.702;7.276;2022-12-07T20:24:59;11.10;;;7.70;;
19946;SDS011;10135;50.702;7.276;2022-12-07T20:26:59;11.70;;;7.63;;
19946;SDS011;10135;50.702;7.276;2022-12-07T20:29:07;12.53;;;7.83;;
19946;SDS011;10135;50.702;7.276;2022-12-07T20:31:15;14.07;;;7.60;;
19946;SDS011;10135;50.702;7.276;2022-12-07T20:33:16;10.63;;;7.30;;
19946;SDS011;10135;50.702;7.276;2022-12-07T20:35:18;12.50;;;7.43;;
19946;SDS011;10135;50.702;7.276;2022-12-07T20:37:19;10.63;;;7.53;;
19946;SDS011;10135;50.702;7.276;2022-12-07T20:39:19;13.63;;;7.60;;
19946;SDS011;10135;50.702;7.276;2022-12-07T20:41:22;11.03;;;7.50;;
19946;SDS011;10135;50.702;7.276;2022-12-07T20:43:43;11.70;;;7.73;;
19946;SDS011;10135;50.702;7.276;2022-12-07T20:45:47;11.93;;;7.40;;